Time;durP1;ratioP1;P1;durP2;ratioP2;P2;SDS_P1;SDS_P2;PMS_P1;PMS_P2;Temp;Humidity;BMP_temperature;BMP_pressure;BME280_temperature;BME280_humidity;BME280_pressure;Samples;Min_cycle;Max_cycle;Signal;HPM_P1;HPM_P2
2023/08/06 00:01:06;;;;;;;14.75;9.77;;;;;;;29.91;69.95;100957.44;5052905;28;70534;-40
2023/08/06 00:03:55;;;;;;;20.63;11.05;;;;;;;29.81;69.80;100933.53;5052716;28;67059;-39
2023/08/06 00:06:45;;;;;;;12.15;10.13;;;;;;;30.02;69.74;100960.31;5058002;28;70399;-40
2023/08/06 00:09:34;;;;;;;16.65;9.90;;;;;;;30.06;72.08;100969.66;5051013;28;66692;-40
2023/08/06 00:12:24;;;;;;;17.73;10.35;;;;;;;30.10;72.13;100972.78;5055493;28;71142;-39
2023/08/06 00:15:13;;;;;;;14.43;10.07;;;;;;;30.13;72.95;100969.63;5055361;28;66608;-39
2023/08/06 00:18:02;;;;;;;19.55;8.98;;;;;;;30.22;73.53;100967.56;5046971;28;71538;-42
2023/08/06 00:20:53;;;;;;;14.20;9.07;;;;;;;30.25;73.67;100975.25;5052549;28;66737;-40
2023/08/06 00:23:43;;;;;;;14.55;8.40;;;;;;;30.26;72.91;100976.94;5052013;28;71125;-41
2023/08/06 00:26:33;;;;;;;9.63;8.48;;;;;;;30.32;72.37;100977.94;5047473;28;66360;-42
2023/08/06 00:29:22;;;;;;;9.38;8.07;;;;;;;30.33;74.25;100983.13;5052460;28;71147;-40
2023/08/06 00:32:11;;;;;;;13.10;8.18;;;;;;;30.34;73.84;100984.81;5052859;28;66588;-40
2023/08/06 00:35:01;;;;;;;18.80;9.60;;;;;;;30.41;73.91;100990.19;5054260;28;71184;-40
2023/08/06 00:37:50;;;;;;;16.30;9.38;;;;;;;30.45;73.05;100991.41;5052767;28;67294;-39
2023/08/06 00:40:40;;;;;;;9.93;8.57;;;;;;;30.44;73.77;100979.75;4966307;28;2399152;-44
2023/08/06 00:43:29;;;;;;;18.95;8.68;;;;;;;30.49;75.63;100989.94;5050757;28;67279;-43
2023/08/06 00:46:19;;;;;;;12.90;9.02;;;;;;;30.48;75.43;100985.59;5056029;28;70507;-43
2023/08/06 00:49:09;;;;;;;13.40;9.20;;;;;;;30.54;76.38;100994.72;5049273;28;67014;-45
2023/08/06 00:51:59;;;;;;;19.55;9.07;;;;;;;30.58;74.22;100985.94;5051038;28;70307;-42
2023/08/06 00:54:48;;;;;;;21.60;9.35;;;;;;;30.64;75.22;101000.47;5055849;28;66676;-43
2023/08/06 00:57:38;;;;;;;22.05;8.77;;;;;;;30.69;75.62;100990.66;5043469;28;70435;-44
2023/08/06 01:00:29;;;;;;;22.13;10.30;;;;;;;30.63;75.48;100985.28;5061659;28;66882;-43
2023/08/06 01:03:18;;;;;;;22.30;9.25;;;;;;;30.78;75.41;100995.81;5057366;28;71180;-47
2023/08/06 01:06:07;;;;;;;26.88;9.30;;;;;;;30.13;76.08;100896.59;5055882;28;66236;-43
2023/08/06 01:09:02;;;;;;;28.98;9.95;;;;;;;30.61;71.79;100957.59;5056542;28;71192;-46
2023/08/06 01:12:05;;;;;;;21.17;9.43;;;;;;;30.87;71.63;101013.50;5065902;28;67481;-46
2023/08/06 01:15:12;;;;;;;14.57;8.50;;;;;;;30.92;70.81;101006.41;5056482;28;70850;-45
2023/08/06 01:18:02;;;;;;;14.45;8.43;;;;;;;30.78;70.12;100980.41;5058215;28;67591;-43
2023/08/06 01:20:52;;;;;;;19.75;8.27;;;;;;;30.94;70.04;100995.34;5049128;28;71100;-43
2023/08/06 01:23:43;;;;;;;12.77;7.93;;;;;;;30.80;69.78;100974.81;5056756;28;65175;-43
2023/08/06 01:26:58;;;;;;;23.17;7.85;;;;;;;30.23;69.40;100904.31;5058301;28;71082;-44
2023/08/06 01:30:05;;;;;;;16.52;8.02;;;;;;;30.96;69.63;101009.50;5055103;28;67077;-44
2023/08/06 01:33:00;;;;;;;15.13;7.40;;;;;;;31.09;69.70;101031.09;5051343;28;71745;-44
2023/08/06 01:35:51;;;;;;;10.82;6.95;;;;;;;31.00;69.28;100993.66;5062977;28;67240;-45
2023/08/06 01:38:40;;;;;;;7.95;6.85;;;;;;;30.97;73.49;101011.16;5055998;28;70292;-43
2023/08/06 01:41:30;;;;;;;13.75;7.80;;;;;;;30.98;74.46;101017.41;5057714;28;67791;-43
2023/08/06 01:44:20;;;;;;;8.93;7.20;;;;;;;30.88;74.26;101007.06;5058312;28;70792;-43
2023/08/06 01:47:09;;;;;;;8.80;7.28;;;;;;;30.93;75.36;101009.94;5047031;28;66405;-44
2023/08/06 01:49:59;;;;;;;7.95;6.57;;;;;;;30.81;75.43;101000.84;5056845;28;70148;-43
2023/08/06 01:52:48;;;;;;;7.55;5.75;;;;;;;30.82;75.62;100994.41;5058060;28;66628;-46
2023/08/06 01:55:38;;;;;;;7.75;6.10;;;;;;;30.99;75.24;101019.91;5053777;28;70996;-41
2023/08/06 01:58:28;;;;;;;19.38;6.53;;;;;;;31.04;72.96;100995.72;5055239;28;67321;-43
2023/08/06 02:01:20;;;;;;;11.13;5.78;;;;;;;31.18;72.44;101028.97;5056705;28;71070;-41
2023/08/06 02:04:11;;;;;;;16.60;5.63;;;;;;;31.21;71.68;101025.00;5029775;28;67214;-43
2023/08/06 02:07:00;;;;;;;8.63;5.65;;;;;;;31.24;71.84;101016.41;5043166;28;71067;-42
2023/08/06 02:09:49;;;;;;;13.02;5.90;;;;;;;31.32;71.01;101018.88;5058249;28;67553;-40
2023/08/06 02:12:40;;;;;;;11.73;5.78;;;;;;;31.38;70.99;101023.44;5044375;28;69393;-41
2023/08/06 02:15:30;;;;;;;9.15;4.97;;;;;;;31.30;70.65;100994.66;5057410;28;66911;-41
2023/08/06 02:18:19;;;;;;;9.98;5.35;;;;;;;31.46;70.46;101004.19;5056987;28;71078;-40
2023/08/06 02:21:09;;;;;;;7.68;4.80;;;;;;;31.50;70.43;101013.50;5060449;28;67207;-41
2023/08/06 02:23:58;;;;;;;9.35;4.78;;;;;;;31.54;70.25;101017.47;5050826;28;70628;-40
2023/08/06 02:26:50;;;;;;;8.15;4.90;;;;;;;31.56;70.08;101009.09;5053174;28;66644;-41
2023/08/06 02:29:41;;;;;;;;;;;;;;;31.22;71.74;101018.50;5054362;28;71084;-41
2023/08/06 02:32:32;;;;;;;10.10;4.40;;;;;;;31.56;69.95;101007.19;5059410;28;67056;-42
2023/08/06 02:35:22;;;;;;;6.35;4.80;;;;;;;31.55;69.86;101002.84;5054574;28;71261;-43
2023/08/06 02:38:11;;;;;;;6.45;4.78;;;;;;;31.66;69.62;101006.72;5044480;28;67535;-42
2023/08/06 02:41:05;;;;;;;5.20;4.65;;;;;;;31.70;69.64;100999.78;5059743;28;71202;-42
2023/08/06 02:43:54;;;;;;;8.45;4.90;;;;;;;31.74;69.39;101006.44;5047660;28;66760;-42
2023/08/06 02:46:45;;;;;;;6.55;4.97;;;;;;;31.13;69.47;100902.25;5058278;28;71163;-42
2023/08/06 02:49:35;;;;;;;7.00;4.70;;;;;;;31.66;69.27;100986.91;5059520;28;66592;-42
2023/08/06 02:52:24;;;;;;;7.85;4.45;;;;;;;31.74;69.31;100994.75;5055534;28;70834;-42
2023/08/06 02:55:14;;;;;;;5.50;4.47;;;;;;;31.85;69.27;100996.72;5059528;28;67533;-43
2023/08/06 02:58:05;;;;;;;;;;;;;;;31.49;70.46;100979.34;5060380;28;70525;-41
2023/08/06 03:01:07;;;;;;;6.18;4.60;;;;;;;31.79;69.31;100979.47;5048532;28;67583;-41
2023/08/06 03:04:06;;;;;;;5.93;4.05;;;;;;;31.92;68.78;100983.13;5043799;28;70219;-42
2023/08/06 03:07:00;;;;;;;6.88;4.85;;;;;;;31.95;68.76;100975.34;5066965;28;66360;-42
2023/08/06 03:10:00;;;;;;;12.27;4.72;;;;;;;31.96;68.79;100976.19;5050253;28;71286;-42
2023/08/06 03:12:50;;;;;;;5.03;4.53;;;;;;;31.82;68.94;100954.59;5051559;28;66562;-40
2023/08/06 03:15:41;;;;;;;5.78;4.20;;;;;;;32.03;68.79;100983.19;5052887;28;71107;-40
2023/08/06 03:18:33;;;;;;;4.30;3.90;;;;;;;31.72;68.85;100929.06;5041260;28;66294;-42
2023/08/06 03:21:26;;;;;;;7.22;4.65;;;;;;;32.06;68.65;100976.47;5047485;28;70893;-40
2023/08/06 03:24:17;;;;;;;10.07;4.47;;;;;;;31.89;68.77;100943.66;5041901;28;67216;-42
2023/08/06 03:27:07;;;;;;;5.18;4.43;;;;;;;32.04;68.65;100957.72;5051736;28;70561;-42
2023/08/06 03:30:00;;;;;;;4.88;4.38;;;;;;;31.92;68.83;100929.69;5048191;28;67179;-40
2023/08/06 03:32:51;;;;;;;6.20;4.40;;;;;;;32.00;68.62;100931.28;5056372;28;70809;-41
2023/08/06 03:35:41;;;;;;;4.35;3.97;;;;;;;32.01;68.53;100931.06;5057532;28;67149;-40
2023/08/06 03:38:31;;;;;;;4.50;4.03;;;;;;;32.16;68.45;100949.66;5056150;28;70437;-40
2023/08/06 03:41:23;;;;;;;6.72;4.43;;;;;;;32.24;68.37;100951.25;5051888;28;67541;-43
2023/08/06 03:44:13;;;;;;;5.18;4.30;;;;;;;32.26;68.50;100951.81;5041118;28;71071;-41
2023/08/06 03:47:03;;;;;;;6.97;4.43;;;;;;;32.28;68.55;100957.84;5068563;28;67596;-43
2023/08/06 03:49:52;;;;;;;5.32;4.00;;;;;;;32.31;68.41;100956.56;5049764;28;71170;-41
2023/08/06 03:52:43;;;;;;;6.85;4.20;;;;;;;32.33;68.41;100949.84;5050191;28;66535;-41
2023/08/06 03:55:32;;;;;;;4.25;3.65;;;;;;;32.35;68.49;100944.22;5061327;27;69416;-41
2023/08/06 03:58:21;;;;;;;7.60;3.90;;;;;;;32.26;68.34;100925.53;5053812;28;66568;-41
2023/08/06 04:01:11;;;;;;;4.50;4.10;;;;;;;32.10;68.29;100895.47;5057352;28;71058;-42
2023/08/06 04:04:04;;;;;;;6.18;4.00;;;;;;;32.40;68.40;100944.31;5053860;28;67168;-42
2023/08/06 04:06:53;;;;;;;5.30;4.00;;;;;;;32.36;68.29;100935.81;5048224;28;70448;-42
2023/08/06 04:09:59;;;;;;;4.32;3.92;;;;;;;32.24;68.54;100910.53;5051155;28;67309;-42
2023/08/06 04:12:49;;;;;;;4.57;3.33;;;;;;;32.42;68.07;100915.88;5052450;28;70821;-44
2023/08/06 04:15:38;;;;;;;12.38;4.50;;;;;;;32.26;69.35;100932.81;5058084;28;66731;-46
2023/08/06 04:18:27;;;;;;;4.80;4.22;;;;;;;32.13;70.77;100922.16;5057445;28;70522;-40
2023/08/06 04:21:17;;;;;;;7.15;4.68;;;;;;;32.01;71.16;100914.78;5057292;28;67401;-43
2023/08/06 04:24:07;;;;;;;11.23;4.60;;;;;;;32.03;71.56;100907.22;5057077;28;71131;-43
2023/08/06 04:26:56;;;;;;;7.60;4.72;;;;;;;32.10;71.97;100918.00;5057792;28;66648;-42
2023/08/06 04:29:46;;;;;;;5.50;4.35;;;;;;;32.11;72.03;100903.38;5056123;28;71081;-42
2023/08/06 04:32:37;;;;;;;5.32;4.57;;;;;;;32.07;72.06;100893.19;5054335;28;67326;-41
2023/08/06 04:35:27;;;;;;;6.78;4.45;;;;;;;32.03;72.51;100898.25;5047647;28;71088;-41
2023/08/06 04:38:17;;;;;;;5.32;4.80;;;;;;;32.12;71.99;100893.34;5055405;28;67435;-43
2023/08/06 04:41:07;;;;;;;6.57;5.00;;;;;;;32.09;72.68;100883.75;5053426;28;71493;-42
2023/08/06 04:43:57;;;;;;;9.48;4.72;;;;;;;32.10;72.51;100880.00;5057854;28;67304;-43
2023/08/06 04:46:47;;;;;;;4.97;4.47;;;;;;;32.12;72.15;100860.78;5054658;28;71082;-39
2023/08/06 04:49:36;;;;;;;6.80;4.57;;;;;;;32.15;72.41;100860.31;5050969;28;66486;-42
2023/08/06 04:52:28;;;;;;;5.20;4.43;;;;;;;32.17;71.72;100858.19;5054973;28;71027;-40
2023/08/06 04:55:18;;;;;;;10.00;5.65;;;;;;;32.24;71.35;100854.34;5051139;28;67332;-42
2023/08/06 04:58:09;;;;;;;8.38;5.20;;;;;;;32.21;71.38;100854.81;5056263;28;71222;-42
2023/08/06 05:00:58;;;;;;;12.15;4.95;;;;;;;32.22;71.30;100858.34;5050367;28;67315;-39
2023/08/06 05:03:48;;;;;;;19.55;5.95;;;;;;;32.47;70.01;100855.50;5053415;28;70706;-43
2023/08/06 05:06:40;;;;;;;11.63;5.47;;;;;;;32.56;69.60;100853.28;5053427;28;66859;-42
2023/08/06 05:09:29;;;;;;;11.73;5.40;;;;;;;32.66;69.35;100834.53;5056287;28;70815;-40
2023/08/06 05:12:19;;;;;;;10.35;5.55;;;;;;;32.72;69.27;100834.41;5051729;28;67332;-42
2023/08/06 05:15:09;;;;;;;11.52;5.95;;;;;;;32.68;68.94;100816.94;5051859;28;71242;-42
2023/08/06 05:17:58;;;;;;;16.25;5.93;;;;;;;32.82;68.53;100828.44;5052212;28;66925;-41
2023/08/06 05:20:48;;;;;;;10.20;5.97;;;;;;;32.87;68.85;100833.97;5051039;28;70601;-41
2023/08/06 05:23:38;;;;;;;8.65;4.82;;;;;;;32.72;68.51;100799.13;5060554;28;67327;-41
2023/08/06 05:26:27;;;;;;;8.35;5.18;;;;;;;32.92;68.21;100823.22;5055048;28;71563;-41
2023/08/06 05:29:17;;;;;;;12.27;5.65;;;;;;;32.92;67.99;100817.78;5060465;28;66580;-41
2023/08/06 05:32:08;;;;;;;8.40;5.00;;;;;;;32.97;67.75;100805.41;5057316;28;71270;-41
2023/08/06 05:35:02;;;;;;;6.72;4.90;;;;;;;33.02;67.54;100805.56;5059212;28;66428;-42
2023/08/06 05:37:55;;;;;;;7.68;5.30;;;;;;;33.04;67.23;100804.25;5062112;28;70624;-43
2023/08/06 05:40:44;;;;;;;10.98;5.07;;;;;;;33.07;67.09;100797.50;5059074;28;67548;-41
2023/08/06 05:43:34;;;;;;;5.32;4.80;;;;;;;33.10;66.77;100797.03;5062171;28;70821;-41
2023/08/06 05:46:23;;;;;;;5.35;4.85;;;;;;;33.12;66.54;100779.41;5053906;28;67467;-42
2023/08/06 05:49:13;;;;;;;9.93;4.45;;;;;;;33.15;66.40;100783.53;5058178;28;71137;-42
2023/08/06 05:52:05;;;;;;;8.60;5.00;;;;;;;32.99;65.72;100757.06;5059824;28;66536;-42
2023/08/06 05:54:55;;;;;;;12.60;4.75;;;;;;;33.17;65.61;100769.72;5053722;28;71154;-41
2023/08/06 05:57:45;;;;;;;10.73;4.68;;;;;;;33.15;65.37;100761.78;5059346;28;67391;-41
2023/08/06 06:00:35;;;;;;;9.93;4.93;;;;;;;33.10;65.41;100743.50;5058868;28;71459;-42
2023/08/06 06:03:24;;;;;;;12.80;5.70;;;;;;;33.19;65.16;100752.13;5056219;28;66885;-42
2023/08/06 06:06:14;;;;;;;13.30;4.85;;;;;;;33.16;65.18;100744.44;5059664;28;71128;-40
2023/08/06 06:09:04;;;;;;;14.05;4.85;;;;;;;32.92;64.03;100744.41;5060257;28;66638;-40
2023/08/06 06:11:54;;;;;;;7.65;3.92;;;;;;;32.63;62.93;100753.53;5046302;28;70632;-41
2023/08/06 06:14:44;;;;;;;8.10;4.78;;;;;;;32.40;61.98;100755.13;5059281;28;67199;-42
2023/08/06 06:17:33;;;;;;;6.47;4.30;;;;;;;32.27;61.42;100745.31;5051584;28;71341;-40
2023/08/06 06:20:23;;;;;;;7.85;4.00;;;;;;;31.90;60.87;100706.63;5059450;28;67272;-41
2023/08/06 06:23:12;;;;;;;4.65;3.97;;;;;;;32.02;59.79;100717.53;5056593;28;71197;-41
2023/08/06 06:26:02;;;;;;;10.40;3.90;;;;;;;32.02;58.82;100725.66;5054504;28;66956;-41
2023/08/06 06:28:51;;;;;;;5.50;3.72;;;;;;;31.89;57.99;100721.22;5059795;28;71161;-41
2023/08/06 06:31:40;;;;;;;6.30;3.92;;;;;;;31.85;57.78;100720.06;5060571;28;66496;-42
2023/08/06 06:34:30;;;;;;;4.80;3.78;;;;;;;31.74;57.42;100720.84;5060035;28;71318;-42
2023/08/06 06:37:20;;;;;;;4.05;3.65;;;;;;;31.78;56.79;100722.00;5056921;28;67254;-41
2023/08/06 06:40:10;;;;;;;4.95;4.45;;;;;;;31.69;56.08;100704.41;5059444;28;71186;-42
2023/08/06 06:42:59;;;;;;;5.60;4.13;;;;;;;31.73;55.29;100717.31;5060379;28;67277;-40
2023/08/06 06:46:09;;;;;;;11.07;4.05;;;;;;;31.63;55.11;100722.44;5053115;28;71216;-40
2023/08/06 06:48:59;;;;;;;4.03;3.72;;;;;;;31.56;54.52;100695.41;5045521;28;67336;-40
2023/08/06 06:51:49;;;;;;;4.40;3.97;;;;;;;31.67;54.13;100706.53;5056982;28;70471;-41
2023/08/06 06:54:39;;;;;;;3.67;3.40;;;;;;;31.50;53.80;100674.63;5055483;28;66563;-40
2023/08/06 06:57:28;;;;;;;4.05;3.75;;;;;;;31.67;53.11;100696.50;5059710;28;70087;-41
2023/08/06 07:00:17;;;;;;;5.97;4.57;;;;;;;31.69;52.49;100699.81;5056022;28;66385;-42
2023/08/06 07:03:07;;;;;;;4.53;3.70;;;;;;;31.67;52.27;100685.66;5056680;28;70676;-42
2023/08/06 07:06:00;;;;;;;4.57;4.18;;;;;;;31.16;52.00;100592.91;5060592;28;67234;-43
2023/08/06 07:08:49;;;;;;;3.70;3.40;;;;;;;31.73;51.51;100676.63;5053740;28;71184;-41
2023/08/06 07:11:39;;;;;;;3.58;3.33;;;;;;;31.76;51.74;100672.59;5052468;28;66227;-42
2023/08/06 07:14:29;;;;;;;3.90;3.55;;;;;;;31.77;51.31;100671.56;5059540;28;71102;-42
2023/08/06 07:17:19;;;;;;;3.50;3.20;;;;;;;31.77;51.17;100660.69;5058338;28;67036;-43
2023/08/06 07:20:09;;;;;;;4.88;3.80;;;;;;;31.73;50.38;100651.38;5054094;28;71179;-40
2023/08/06 07:22:59;;;;;;;3.45;3.15;;;;;;;31.29;50.14;100580.25;5053584;28;66596;-41
2023/08/06 07:25:49;;;;;;;3.53;3.28;;;;;;;31.79;50.52;100645.84;5051662;28;70557;-41
2023/08/06 07:28:38;;;;;;;3.97;3.47;;;;;;;31.76;50.00;100640.91;5044055;28;66849;-39
2023/08/06 07:31:28;;;;;;;4.05;3.50;;;;;;;31.77;49.71;100647.97;5055913;28;71247;-41
2023/08/06 07:34:18;;;;;;;3.95;3.55;;;;;;;31.73;49.42;100629.66;5057983;28;66537;-41
2023/08/06 07:37:08;;;;;;;4.97;3.28;;;;;;;31.61;49.44;100600.63;5060083;28;71145;-41
2023/08/06 07:40:04;;;;;;;3.38;2.90;;;;;;;31.66;49.02;100607.25;5056163;28;66822;-42
2023/08/06 07:42:54;;;;;;;3.35;3.05;;;;;;;31.75;49.07;100611.28;5055224;28;71078;-41
2023/08/06 07:45:43;;;;;;;4.90;2.75;;;;;;;31.74;48.79;100609.66;5058867;28;66646;-40
2023/08/06 07:48:39;;;;;;;6.03;3.28;;;;;;;30.79;48.71;100453.22;5057948;28;69700;-41
2023/08/06 07:51:29;;;;;;;4.07;2.88;;;;;;;31.72;48.56;100603.63;5057012;28;67236;-40
2023/08/06 07:54:19;;;;;;;3.30;3.00;;;;;;;31.64;48.37;100582.25;5057203;28;71124;-43
2023/08/06 07:57:09;;;;;;;5.55;3.13;;;;;;;31.74;48.71;100598.78;5055660;28;67163;-41
2023/08/06 07:59:58;;;;;;;3.60;3.35;;;;;;;31.69;48.51;100585.09;5057513;28;71087;-40
2023/08/06 08:02:47;;;;;;;4.88;3.20;;;;;;;31.74;48.11;100598.78;5052320;28;67393;-41
2023/08/06 08:05:37;;;;;;;3.30;3.08;;;;;;;31.80;47.93;100603.28;5052118;28;69988;-41
2023/08/06 08:08:26;;;;;;;3.25;3.00;;;;;;;31.77;47.62;100591.00;5057839;28;66364;-42
2023/08/06 08:11:16;;;;;;;3.58;3.28;;;;;;;31.79;48.08;100586.19;5056390;28;71144;-41
2023/08/06 08:14:05;;;;;;;3.20;3.00;;;;;;;31.78;48.42;100572.84;5054787;28;67323;-41
2023/08/06 08:16:55;;;;;;;3.80;3.47;;;;;;;31.41;47.91;100507.97;5053132;28;69304;-41
2023/08/06 08:19:44;;;;;;;3.53;3.22;;;;;;;31.78;47.88;100572.84;5057153;28;66940;-40
2023/08/06 08:22:33;;;;;;;4.93;3.13;;;;;;;31.82;47.87;100582.19;5052591;28;71741;-42
2023/08/06 08:25:23;;;;;;;5.13;3.28;;;;;;;31.83;47.46;100581.94;5055612;28;67182;-40
2023/08/06 08:28:12;;;;;;;3.10;2.85;;;;;;;31.82;47.61;100576.75;5052576;28;71110;-42
2023/08/06 08:31:01;;;;;;;2.97;2.78;;;;;;;31.75;47.24;100565.19;5048119;28;66662;-41
2023/08/06 08:33:51;;;;;;;3.60;2.95;;;;;;;31.79;47.46;100571.81;5059682;28;70328;-40
2023/08/06 08:36:43;;;;;;;3.72;3.38;;;;;;;31.72;47.35;100574.63;5049302;28;67421;-40
2023/08/06 08:39:33;;;;;;;3.72;3.17;;;;;;;31.76;47.42;100564.13;5051007;28;70458;-41
2023/08/06 08:42:22;;;;;;;4.13;3.60;;;;;;;31.84;47.04;100580.03;5057240;28;67337;-42
2023/08/06 08:45:14;;;;;;;7.88;3.20;;;;;;;31.69;46.99;100541.72;5056459;28;71116;-40
2023/08/06 08:48:04;;;;;;;4.43;2.90;;;;;;;31.85;47.36;100565.44;5060551;28;67199;-42
2023/08/06 08:50:54;;;;;;;4.03;3.30;;;;;;;31.75;46.88;100551.63;5049889;28;71150;-42
2023/08/06 08:53:46;;;;;;;3.53;3.22;;;;;;;31.38;46.77;100484.03;5051968;28;67278;-42
2023/08/06 08:56:36;;;;;;;3.55;3.30;;;;;;;31.80;46.89;100562.59;5061004;28;70353;-45
2023/08/06 08:59:26;;;;;;;3.25;2.90;;;;;;;31.80;46.96;100560.72;5062549;28;66524;-42
2023/08/06 09:02:16;;;;;;;4.53;3.20;;;;;;;31.78;47.15;100556.56;5062426;28;70078;-40
2023/08/06 09:05:07;;;;;;;3.90;3.08;;;;;;;31.77;46.49;100560.34;5053328;28;66625;-42
2023/08/06 09:08:05;;;;;;;3.75;3.33;;;;;;;31.76;46.45;100561.41;5056936;28;71052;-41
2023/08/06 09:10:56;;;;;;;5.47;3.20;;;;;;;31.88;48.46;100567.69;5057067;28;67063;-45
2023/08/06 09:13:46;;;;;;;4.25;3.83;;;;;;;32.03;53.58;100559.91;5054120;28;70752;-44
2023/08/06 09:16:39;;;;;;;10.93;4.55;;;;;;;32.25;56.54;100575.63;5053150;28;66667;-46
2023/08/06 09:19:28;;;;;;;7.50;4.82;;;;;;;32.38;57.82;100577.28;5053649;28;71261;-45
2023/08/06 09:22:18;;;;;;;6.32;4.95;;;;;;;32.54;58.36;100581.16;5060414;28;67373;-46
2023/08/06 09:25:13;;;;;;;9.57;5.57;;;;;;;32.59;58.88;100563.06;5048986;28;71107;-44
2023/08/06 09:28:03;;;;;;;8.30;5.63;;;;;;;32.65;59.59;100566.72;5063661;28;66918;-48
2023/08/06 09:30:55;;;;;;;9.82;6.00;;;;;;;32.78;59.40;100585.47;5062406;28;70345;-48
2023/08/06 09:33:45;;;;;;;12.40;6.47;;;;;;;32.89;59.94;100590.03;5060067;28;67329;-46
2023/08/06 09:36:34;;;;;;;9.18;6.07;;;;;;;32.93;60.41;100596.66;5057449;28;71153;-47
2023/08/06 09:39:29;;;;;;;10.18;5.82;;;;;;;32.84;60.83;100579.06;5050471;28;67249;-44
2023/08/06 09:42:19;;;;;;;11.50;6.10;;;;;;;32.63;60.95;100555.28;5053507;28;71129;-44
2023/08/06 09:45:08;;;;;;;5.72;5.22;;;;;;;32.64;61.56;100559.66;5055896;28;67150;-46
2023/08/06 09:47:59;;;;;;;10.98;7.40;;;;;;;33.12;61.52;100610.06;5058778;28;71049;-45
2023/08/06 09:50:51;;;;;;;10.80;8.95;;;;;;;33.17;61.99;100617.50;5055468;28;66434;-44
2023/08/06 09:53:42;;;;;;;9.73;7.80;;;;;;;33.22;62.13;100610.28;5059771;28;71115;-43
2023/08/06 09:56:37;;;;;;;11.02;8.60;;;;;;;33.30;62.09;100606.34;5058174;28;67408;-46
2023/08/06 09:59:27;;;;;;;31.92;16.95;;;;;;;33.26;62.91;100600.56;5045661;28;71236;-45
2023/08/06 10:02:20;;;;;;;13.98;10.63;;;;;;;33.31;63.20;100619.69;5060034;28;66618;-46
2023/08/06 10:05:12;;;;;;;13.45;9.30;;;;;;;33.36;62.72;100617.06;5055269;28;71079;-45
2023/08/06 10:08:06;;;;;;;9.75;8.95;;;;;;;33.35;63.13;100611.91;5053157;28;66875;-46
2023/08/06 10:10:57;;;;;;;10.23;8.67;;;;;;;33.33;64.27;100605.88;5053530;28;71265;-45
2023/08/06 10:13:48;;;;;;;10.43;8.10;;;;;;;33.35;64.17;100606.47;5059018;28;67694;-46
2023/08/06 10:16:40;;;;;;;10.48;7.45;;;;;;;33.38;64.96;100604.06;5058942;28;71028;-44
2023/08/06 10:19:31;;;;;;;;;;;;;;;33.32;65.22;100615.91;5059854;28;66495;-47
2023/08/06 10:22:24;;;;;;;14.60;8.02;;;;;;;33.65;61.77;100597.19;5058181;28;70417;-45
2023/08/06 10:25:17;;;;;;;10.20;6.88;;;;;;;33.83;61.50;100617.91;5059225;28;67286;-45
2023/08/06 10:28:14;;;;;;;17.40;6.88;;;;;;;33.88;61.58;100612.53;5060102;28;70647;-45
2023/08/06 10:31:05;;;;;;;13.55;7.47;;;;;;;33.93;60.36;100609.91;5059352;28;67330;-45
2023/08/06 10:33:55;;;;;;;8.65;6.22;;;;;;;33.97;60.67;100601.00;5059818;28;71138;-46
2023/08/06 10:36:45;;;;;;;11.95;7.78;;;;;;;33.92;60.96;100606.38;5059878;28;67441;-46
2023/08/06 10:39:34;;;;;;;13.10;7.25;;;;;;;33.97;60.60;100611.88;5059171;28;70582;-45
2023/08/06 10:42:33;;;;;;;6.93;6.22;;;;;;;34.00;61.50;100622.28;5054727;28;67023;-44
2023/08/06 10:45:28;;;;;;;14.57;7.00;;;;;;;34.04;60.72;100628.03;5053882;28;71262;-45
2023/08/06 10:48:34;;;;;;;10.25;7.40;;;;;;;33.88;61.47;100617.97;5043997;28;66909;-45
2023/08/06 10:51:23;;;;;;;9.27;7.00;;;;;;;34.03;60.70;100621.78;5053428;28;71764;-46
2023/08/06 10:54:13;;;;;;;12.30;6.57;;;;;;;34.03;60.53;100615.53;5057215;28;65215;-46
2023/08/06 10:57:10;;;;;;;9.63;7.05;;;;;;;34.05;61.89;100624.31;5054626;28;71101;-44
2023/08/06 10:59:59;;;;;;;18.83;6.90;;;;;;;34.07;61.11;100621.31;5061684;28;67276;-46
2023/08/06 11:02:56;;;;;;;8.23;7.38;;;;;;;34.08;61.47;100628.44;5053314;28;70499;-46
2023/08/06 11:05:52;;;;;;;13.88;6.78;;;;;;;34.07;61.70;100643.91;5044080;28;66871;-45
2023/08/06 11:08:49;;;;;;;13.77;7.00;;;;;;;33.85;61.73;100613.88;5060416;28;71205;-45
2023/08/06 11:11:38;;;;;;;12.75;7.20;;;;;;;34.08;60.88;100648.28;5051178;28;67420;-44
2023/08/06 11:14:31;;;;;;;16.35;11.95;;;;;;;33.83;63.54;100647.84;5057922;28;69962;-44
2023/08/06 11:17:20;;;;;;;21.45;17.23;;;;;;;33.57;65.36;100633.78;5054781;28;67014;-45
2023/08/06 11:20:10;;;;;;;47.13;26.27;;;;;;;33.54;66.15;100637.00;5058304;28;71299;-47
2023/08/06 11:23:06;;;;;;;54.50;31.85;;;;;;;33.34;66.56;100626.53;5050533;28;66985;-47
2023/08/06 11:25:56;;;;;;;61.92;37.28;;;;;;;33.33;67.39;100647.47;5058184;28;71094;-47
2023/08/06 11:28:46;;;;;;;56.00;34.20;;;;;;;33.24;67.29;100629.91;5050014;28;66801;-46
2023/08/06 11:31:37;;;;;;;60.35;35.35;;;;;;;32.86;67.48;100574.22;5054507;28;71628;-46
2023/08/06 11:34:27;;;;;;;46.23;33.00;;;;;;;33.22;67.58;100639.38;5055594;28;67429;-48
2023/08/06 11:37:21;;;;;;;46.55;29.27;;;;;;;33.31;67.98;100668.63;5048328;28;71518;-47
2023/08/06 11:40:11;;;;;;;45.95;29.83;;;;;;;33.36;67.30;100660.56;5056749;28;67526;-46
2023/08/06 11:43:02;;;;;;;43.17;28.48;;;;;;;33.30;69.13;100674.31;5060053;28;71477;-45
2023/08/06 11:45:53;;;;;;;43.00;27.48;;;;;;;33.28;69.18;100663.69;5054281;28;66720;-45
2023/08/06 11:49:06;;;;;;;38.28;25.42;;;;;;;33.51;66.48;100665.47;5055340;28;71299;-46
2023/08/06 11:51:56;;;;;;;23.58;20.55;;;;;;;33.55;65.50;100663.13;5056518;28;66723;-47
2023/08/06 11:55:14;;;;;;;42.78;23.08;;;;;;;33.57;67.02;100677.28;5055058;28;71206;-46
2023/08/06 11:58:05;;;;;;;32.05;19.63;;;;;;;33.69;65.10;100674.53;5058628;28;66769;-45
2023/08/06 12:00:56;;;;;;;28.60;19.50;;;;;;;33.62;64.73;100669.22;5056237;28;70842;-48
2023/08/06 12:03:45;;;;;;;23.10;18.25;;;;;;;33.57;64.59;100666.41;5053226;28;67036;-45
2023/08/06 12:06:43;;;;;;;25.13;18.05;;;;;;;33.70;65.20;100701.47;5056273;28;70468;-46
2023/08/06 12:09:36;;;;;;;21.10;16.85;;;;;;;33.36;64.13;100638.81;5071087;28;67476;-46
2023/08/06 12:12:28;;;;;;;20.77;15.68;;;;;;;33.76;64.69;100713.28;5054831;28;70915;-45
2023/08/06 12:15:18;;;;;;;22.27;16.13;;;;;;;33.75;64.15;100734.22;5054509;28;66770;-45
2023/08/06 12:18:07;;;;;;;18.15;13.52;;;;;;;33.76;64.53;100733.16;5059031;28;71134;-45
2023/08/06 12:20:58;;;;;;;22.70;14.45;;;;;;;33.76;64.37;100744.03;5056408;28;67009;-45
2023/08/06 12:23:47;;;;;;;17.48;13.02;;;;;;;33.74;64.38;100743.47;5058997;28;71117;-45
2023/08/06 12:26:37;;;;;;;19.02;13.40;;;;;;;33.69;63.86;100735.19;5051121;28;67081;-45
2023/08/06 12:29:26;;;;;;;19.30;12.55;;;;;;;33.73;64.24;100739.06;5054209;28;70633;-46
2023/08/06 12:32:19;;;;;;;15.95;12.65;;;;;;;33.73;64.18;100741.78;5042659;28;67276;-45
2023/08/06 12:35:11;;;;;;;13.00;11.07;;;;;;;33.69;64.31;100740.66;5059148;28;70132;-45
2023/08/06 12:38:01;;;;;;;17.60;11.20;;;;;;;33.71;64.11;100737.66;5057577;28;66712;-49
2023/08/06 12:40:51;;;;;;;11.25;9.93;;;;;;;33.69;64.16;100743.38;5051836;28;71173;-48
2023/08/06 12:43:41;;;;;;;10.73;9.70;;;;;;;33.24;63.90;100678.84;5057754;28;66595;-45
2023/08/06 12:46:32;;;;;;;12.60;9.40;;;;;;;33.52;64.29;100723.41;5055285;28;71173;-46
2023/08/06 12:49:21;;;;;;;13.45;9.60;;;;;;;33.64;64.06;100748.69;5053758;28;67244;-46
2023/08/06 12:52:12;;;;;;;12.23;9.20;;;;;;;33.63;64.02;100757.94;5051871;28;70272;-45
2023/08/06 12:55:01;;;;;;;9.33;8.50;;;;;;;33.58;64.46;100749.69;5052985;28;67293;-44
2023/08/06 12:57:51;;;;;;;9.32;8.32;;;;;;;33.60;64.15;100761.16;5053926;28;71081;-46
2023/08/06 13:00:47;;;;;;;11.25;8.82;;;;;;;33.61;64.23;100753.81;5050916;28;66643;-46
2023/08/06 13:03:36;;;;;;;12.75;8.43;;;;;;;33.59;64.13;100754.84;5055941;28;70380;-45
2023/08/06 13:06:25;;;;;;;11.50;8.43;;;;;;;33.58;63.71;100760.56;5048662;28;66520;-46
2023/08/06 13:09:15;;;;;;;8.77;7.82;;;;;;;33.57;63.95;100769.75;5043548;28;71300;-45
2023/08/06 13:12:05;;;;;;;8.80;7.85;;;;;;;33.43;64.10;100752.03;5059605;28;66934;-47